Terminal Aerodrome Forecast
Issued by NWS Upton, NY

Home | Current Version | Previous Version | Text Only | Print | Product List | Glossary On
Versions: 1 2 3 4 5 6 7 8 9 10 11 12 13 14 15 16 17 18 19 20 21 22 23 24 25 26 27 28 29 30 31 32 33 34 35 36 37 38 39 40 41
459
FTUS41 KOKX 291529 AAB
TAFLGA
TAF AMD
KLGA 291529Z 2915/3012 27012G18KT P6SM FEW040 BKN200
     FM291900 29013G20KT P6SM FEW040 BKN200
     FM292200 32008KT P6SM BKN200
     FM300500 35007KT P6SM FEW250
     FM300700 02008KT P6SM SKC
     FM300900 05009KT P6SM SKC=

USA.gov is the U.S. government's official web portal to all federal, state and local government web resources and services.